createdAt,value
2023-01-20T00:02:50.603Z,11.80
2023-01-20T00:05:52.989Z,13.07
2023-01-20T00:08:57.953Z,12.77
2023-01-20T00:12:00.328Z,11.57
2023-01-20T00:15:02.946Z,10.98
2023-01-20T00:18:05.217Z,10.75
2023-01-20T00:21:12.831Z,11.63
2023-01-20T00:24:15.331Z,12.97
2023-01-20T00:27:20.335Z,11.40
2023-01-20T00:30:22.865Z,13.32
2023-01-20T00:33:25.184Z,12.05
2023-01-20T00:36:29.408Z,13.13
2023-01-20T00:39:31.735Z,13.53
2023-01-20T00:42:34.260Z,11.43
2023-01-20T00:45:36.697Z,11.88
2023-01-20T00:48:39.364Z,12.23
2023-01-20T00:51:41.605Z,11.73
2023-01-20T00:54:43.899Z,13.83
2023-01-20T00:57:46.255Z,14.85
2023-01-20T01:00:49.980Z,16.25
2023-01-20T01:03:58.925Z,12.27
2023-01-20T01:07:01.262Z,16.08
2023-01-20T01:10:06.733Z,15.33
2023-01-20T01:13:09.406Z,15.23
2023-01-20T01:16:13.265Z,13.63
2023-01-20T01:19:18.189Z,13.02
2023-01-20T01:22:21.701Z,17.13
2023-01-20T01:25:24.075Z,13.50
2023-01-20T01:28:26.391Z,14.48
2023-01-20T01:31:29.075Z,15.90
2023-01-20T01:34:31.426Z,16.90
2023-01-20T01:37:33.741Z,13.77
2023-01-20T01:40:36.001Z,16.43
2023-01-20T01:43:39.533Z,14.75
2023-01-20T01:46:42.417Z,15.88
2023-01-20T01:49:45.335Z,14.02
2023-01-20T01:52:51.321Z,13.00
2023-01-20T01:55:58.010Z,14.10
2023-01-20T01:59:03.029Z,13.73
2023-01-20T02:02:08.467Z,17.45
2023-01-20T02:05:12.520Z,13.25
2023-01-20T02:08:15.025Z,12.60
2023-01-20T02:11:17.359Z,15.10
2023-01-20T02:14:22.615Z,13.35
2023-01-20T02:17:34.900Z,15.07
2023-01-20T02:20:57.505Z,15.10
2023-01-20T02:24:27.948Z,15.07
2023-01-20T02:27:51.587Z,13.83
2023-01-20T02:31:16.922Z,15.48
2023-01-20T02:35:04.336Z,15.45
2023-01-20T02:38:25.024Z,13.05
2023-01-20T02:41:37.796Z,15.03
2023-01-20T02:45:06.426Z,13.63
2023-01-20T02:48:16.155Z,13.75
2023-01-20T02:51:24.497Z,16.98
2023-01-20T02:54:29.081Z,12.65
2023-01-20T02:57:36.892Z,13.93
2023-01-20T03:00:49.998Z,15.97
2023-01-20T03:03:54.578Z,13.30
2023-01-20T03:06:58.740Z,14.20
2023-01-20T03:10:04.793Z,13.30
2023-01-20T03:13:13.772Z,13.10
2023-01-20T03:16:18.664Z,12.35
2023-01-20T03:19:21.125Z,14.85
2023-01-20T03:22:24.034Z,14.68
2023-01-20T03:25:26.390Z,14.05
2023-01-20T03:28:28.722Z,12.83
2023-01-20T03:31:35.015Z,14.07
2023-01-20T03:34:39.772Z,15.23
2023-01-20T03:37:43.689Z,15.18
2023-01-20T03:41:00.958Z,12.23
2023-01-20T03:44:25.145Z,13.60
2023-01-20T03:47:46.338Z,12.10
2023-01-20T03:51:22.095Z,11.68
2023-01-20T03:54:27.435Z,11.43
2023-01-20T03:57:35.640Z,10.35
2023-01-20T04:00:42.857Z,10.23
2023-01-20T04:03:47.353Z,11.40
2023-01-20T04:06:50.801Z,12.73
2023-01-20T04:09:58.300Z,9.98
2023-01-20T04:13:00.655Z,11.25
2023-01-20T04:16:04.347Z,9.77
2023-01-20T04:19:06.654Z,12.30
2023-01-20T04:22:19.479Z,11.75
2023-01-20T04:25:30.453Z,9.48
2023-01-20T04:28:32.758Z,10.10
2023-01-20T04:31:36.288Z,9.80
2023-01-20T04:34:39.823Z,10.35
2023-01-20T04:37:42.525Z,10.73
2023-01-20T04:40:44.820Z,12.40
2023-01-20T04:43:47.507Z,11.65
2023-01-20T04:46:49.988Z,9.60
2023-01-20T04:49:52.361Z,11.57
2023-01-20T04:52:55.930Z,10.38
2023-01-20T04:55:58.215Z,13.52
2023-01-20T04:59:00.558Z,18.92
2023-01-20T05:02:03.041Z,12.10
2023-01-20T05:05:05.606Z,9.90
2023-01-20T05:08:07.987Z,11.25
2023-01-20T05:11:10.488Z,10.80
2023-01-20T05:14:13.065Z,11.80
2023-01-20T05:17:15.397Z,12.90
2023-01-20T05:20:20.402Z,9.77
2023-01-20T05:23:22.634Z,11.30
2023-01-20T05:26:25.475Z,9.75
2023-01-20T05:29:28.866Z,12.88
2023-01-20T05:32:31.188Z,12.20
2023-01-20T05:35:33.656Z,13.25
2023-01-20T05:38:36.501Z,10.38
2023-01-20T05:41:38.858Z,11.32
2023-01-20T05:44:41.346Z,13.25
2023-01-20T05:47:43.692Z,11.37
2023-01-20T05:50:45.971Z,11.82
2023-01-20T05:53:48.632Z,9.35
2023-01-20T05:56:50.893Z,13.05
2023-01-20T05:59:53.191Z,12.70
2023-01-20T06:02:55.799Z,10.10
2023-01-20T06:06:02.976Z,10.98
2023-01-20T06:09:06.783Z,13.45
2023-01-20T06:12:10.598Z,12.55
2023-01-20T06:15:18.920Z,17.65
2023-01-20T06:18:22.125Z,12.50
2023-01-20T06:21:25.113Z,11.13
2023-01-20T06:24:28.284Z,15.80
2023-01-20T06:27:31.074Z,12.00
2023-01-20T06:30:34.197Z,12.43
2023-01-20T06:33:39.497Z,14.97
2023-01-20T06:36:48.959Z,17.77
2023-01-20T06:39:51.280Z,18.65
2023-01-20T06:42:53.758Z,13.25
2023-01-20T06:46:04.131Z,16.23
2023-01-20T06:49:13.134Z,13.47
2023-01-20T06:54:16.031Z,13.50
2023-01-20T06:56:22.512Z,13.80
2023-01-20T06:59:25.043Z,13.65
2023-01-20T07:02:27.563Z,14.25
2023-01-20T07:05:29.981Z,12.57
2023-01-20T07:08:32.313Z,30.05
2023-01-20T07:11:37.802Z,18.80
2023-01-20T07:14:40.062Z,15.60
2023-01-20T07:17:42.484Z,15.82
2023-01-20T07:20:44.981Z,15.90
2023-01-20T07:24:06.168Z,13.63
2023-01-20T07:27:11.709Z,13.02
2023-01-20T07:30:14.274Z,15.68
2023-01-20T07:33:16.591Z,14.30
2023-01-20T07:36:19.331Z,15.40
2023-01-20T07:39:21.786Z,14.50
2023-01-20T07:42:24.201Z,21.25
2023-01-20T07:45:26.582Z,17.55
2023-01-20T07:48:31.332Z,16.25
2023-01-20T07:51:33.772Z,17.80
2023-01-20T07:54:36.172Z,17.17
2023-01-20T07:57:38.543Z,16.42
2023-01-20T08:00:42.146Z,19.40
2023-01-20T08:03:44.837Z,18.25
2023-01-20T08:06:48.200Z,16.77
2023-01-20T08:09:50.682Z,15.80
2023-01-20T08:12:52.958Z,17.52
2023-01-20T08:15:55.803Z,16.33
2023-01-20T08:18:58.195Z,16.48
2023-01-20T08:22:00.600Z,15.00
2023-01-20T08:25:03.018Z,15.07
2023-01-20T08:28:05.652Z,17.52
2023-01-20T08:31:11.015Z,17.42
2023-01-20T08:34:13.537Z,16.88
2023-01-20T08:37:15.940Z,15.30
2023-01-20T08:40:18.774Z,16.17
2023-01-20T08:43:21.325Z,18.42
2023-01-20T08:46:23.839Z,16.88
2023-01-20T08:49:26.241Z,16.73
2023-01-20T08:52:28.736Z,17.47
2023-01-20T08:55:31.376Z,17.73
2023-01-20T08:58:33.866Z,20.33
2023-01-20T09:01:37.883Z,16.02
2023-01-20T09:04:40.337Z,18.88
2023-01-20T09:07:43.026Z,16.57
2023-01-20T09:10:48.584Z,17.83
2023-01-20T09:13:57.794Z,16.60
2023-01-20T09:17:10.958Z,17.95
2023-01-20T09:20:16.094Z,18.42
2023-01-20T09:23:20.661Z,16.53
2023-01-20T09:26:41.261Z,16.05
2023-01-20T09:29:46.856Z,18.25
2023-01-20T09:32:53.266Z,18.75
2023-01-20T09:35:56.281Z,15.02
2023-01-20T09:39:17.902Z,16.77
2023-01-20T09:47:22.990Z,16.27
2023-01-20T09:51:11.040Z,17.95
2023-01-20T09:54:28.751Z,17.88
2023-01-20T09:57:35.109Z,16.53
2023-01-20T10:00:38.682Z,17.13
2023-01-20T10:48:37.474Z,10.17
2023-01-20T10:52:11.030Z,12.10
2023-01-20T10:55:47.678Z,10.15
2023-01-20T10:58:51.161Z,10.63
2023-01-20T11:02:10.445Z,13.48
2023-01-20T11:05:19.822Z,9.47
2023-01-20T11:08:28.752Z,10.30
2023-01-20T11:11:31.825Z,12.20
2023-01-20T11:14:34.181Z,12.93
2023-01-20T11:17:38.195Z,17.48
2023-01-20T11:20:45.975Z,14.73
2023-01-20T11:23:52.186Z,12.32
2023-01-20T11:27:03.451Z,13.50
2023-01-20T11:30:11.449Z,10.07
2023-01-20T11:33:26.568Z,10.02
2023-01-20T11:36:29.335Z,10.23
2023-01-20T11:39:51.733Z,9.85
2023-01-20T11:42:54.912Z,8.20
2023-01-20T11:46:17.084Z,15.60
2023-01-20T11:49:22.747Z,7.25
2023-01-20T11:52:25.122Z,9.03
2023-01-20T11:55:27.496Z,9.32
2023-01-20T11:58:47.140Z,8.98
2023-01-20T12:01:52.608Z,9.57
2023-01-20T12:05:03.515Z,7.05
2023-01-20T12:08:10.729Z,10.30
2023-01-20T12:11:17.129Z,8.55
2023-01-20T12:14:35.901Z,9.00
2023-01-20T12:17:56.557Z,9.00
2023-01-20T12:21:18.182Z,8.05
2023-01-20T12:24:53.585Z,10.80
2023-01-20T12:28:01.612Z,9.48
2023-01-20T12:31:12.013Z,12.65
2023-01-20T12:34:27.633Z,7.50
2023-01-20T12:37:45.212Z,8.63
2023-01-20T12:40:55.371Z,10.27
2023-01-20T12:44:20.246Z,9.38
2023-01-20T12:47:37.953Z,29.10
2023-01-20T12:51:10.231Z,8.98
2023-01-20T12:54:57.874Z,7.82
2023-01-20T12:58:00.116Z,8.03
2023-01-20T13:01:26.840Z,10.32
2023-01-20T13:05:06.867Z,8.50
2023-01-20T13:08:36.608Z,10.73
2023-01-20T13:11:57.167Z,12.38
2023-01-20T13:15:09.714Z,9.43
2023-01-20T13:18:19.633Z,14.25
2023-01-20T13:21:22.026Z,8.77
2023-01-20T13:24:29.384Z,10.13
2023-01-20T13:27:36.595Z,11.18
2023-01-20T13:30:44.911Z,16.87
2023-01-20T13:33:47.500Z,18.75
2023-01-20T13:37:07.292Z,16.55
2023-01-20T13:40:28.624Z,24.02
2023-01-20T13:43:34.797Z,17.13
2023-01-20T13:46:44.310Z,22.37
2023-01-20T13:49:48.832Z,23.60
2023-01-20T13:52:51.933Z,24.77
2023-01-20T13:55:56.416Z,17.98
2023-01-20T13:58:59.062Z,14.98
2023-01-20T14:02:19.552Z,14.30
2023-01-20T14:05:21.976Z,17.73
2023-01-20T14:08:26.013Z,16.33
2023-01-20T14:11:29.935Z,16.20
2023-01-20T14:14:32.318Z,17.80
2023-01-20T14:17:36.736Z,20.40
2023-01-20T14:20:41.064Z,19.20
2023-01-20T14:23:46.399Z,15.95
2023-01-20T14:26:48.685Z,17.95
2023-01-20T14:29:52.777Z,26.05
2023-01-20T14:32:55.398Z,23.40
2023-01-20T14:35:57.695Z,20.73
2023-01-20T14:39:04.146Z,30.23
2023-01-20T14:42:21.635Z,20.23
2023-01-20T14:45:25.857Z,23.15
2023-01-20T14:48:34.896Z,20.97
2023-01-20T14:51:37.548Z,24.33
2023-01-20T14:54:46.518Z,25.33
2023-01-20T14:57:48.877Z,24.30
2023-01-20T15:01:00.107Z,28.13
2023-01-20T15:04:05.959Z,27.33
2023-01-20T15:07:17.508Z,25.10
2023-01-20T15:10:19.892Z,24.95
2023-01-20T15:13:28.123Z,23.13
2023-01-20T15:16:32.374Z,23.20
2023-01-20T15:19:35.825Z,24.73
2023-01-20T15:22:42.512Z,21.42
2023-01-20T15:25:44.919Z,19.10
2023-01-20T15:28:47.258Z,20.73
2023-01-20T15:31:50.183Z,20.95
2023-01-20T15:34:52.607Z,21.03
2023-01-20T15:37:55.757Z,20.05
2023-01-20T15:40:58.079Z,17.85
2023-01-20T15:44:00.524Z,19.52
2023-01-20T15:47:10.026Z,18.35
2023-01-20T15:50:24.348Z,17.80
2023-01-20T15:53:26.600Z,17.52
2023-01-20T15:56:30.210Z,19.67
2023-01-20T15:59:32.999Z,15.82
2023-01-20T16:02:35.317Z,16.42
2023-01-20T16:05:37.668Z,17.23
2023-01-20T16:08:40.645Z,17.85
2023-01-20T16:11:42.962Z,16.30
2023-01-20T16:14:45.527Z,19.38
2023-01-20T16:17:48.179Z,18.23
2023-01-20T16:20:50.527Z,15.95
2023-01-20T16:23:53.187Z,15.85
2023-01-20T16:26:55.578Z,17.13
2023-01-20T16:29:58.016Z,17.00
2023-01-20T16:33:00.437Z,14.93
2023-01-20T16:36:02.776Z,13.82
2023-01-20T16:39:05.099Z,15.13
2023-01-20T16:42:12.348Z,18.40
2023-01-20T16:45:27.520Z,15.93
2023-01-20T16:48:29.848Z,17.20
2023-01-20T16:51:32.905Z,19.85
2023-01-20T16:54:35.564Z,16.88
2023-01-20T16:57:37.914Z,19.52
2023-01-20T17:00:40.661Z,17.80
2023-01-20T17:03:43.141Z,20.97
2023-01-20T17:06:45.689Z,19.33
2023-01-20T17:09:48.163Z,19.00
2023-01-20T17:12:54.490Z,16.00
2023-01-20T17:15:56.853Z,27.10
2023-01-20T17:19:00.423Z,19.87
2023-01-20T17:22:02.899Z,22.38
2023-01-20T17:25:07.067Z,20.52
2023-01-20T17:28:09.411Z,22.17
2023-01-20T17:31:12.313Z,18.70
2023-01-20T17:34:15.024Z,19.30
2023-01-20T17:37:17.447Z,19.27
2023-01-20T17:40:19.948Z,19.50
2023-01-20T17:43:22.349Z,22.23
2023-01-20T17:46:27.928Z,22.33
2023-01-20T17:49:30.241Z,22.20
2023-01-20T17:52:32.545Z,18.83
2023-01-20T17:55:35.941Z,23.38
2023-01-20T17:58:38.703Z,20.20
2023-01-20T18:01:41.056Z,18.30
2023-01-20T18:04:43.384Z,18.20
2023-01-20T18:07:45.653Z,19.70
2023-01-20T18:10:48.023Z,21.67
2023-01-20T18:13:52.090Z,19.70
2023-01-20T18:16:54.544Z,19.00
2023-01-20T18:19:56.900Z,21.25
2023-01-20T18:22:59.252Z,20.65
2023-01-20T18:26:01.644Z,19.85
2023-01-20T18:29:09.983Z,16.47
2023-01-20T18:32:12.307Z,20.60
2023-01-20T18:35:14.707Z,18.13
2023-01-20T18:38:17.206Z,17.83
2023-01-20T18:41:20.028Z,18.97
2023-01-20T18:44:23.381Z,16.42
2023-01-20T18:47:25.648Z,19.48
2023-01-20T18:50:28.061Z,14.95
2023-01-20T18:53:31.061Z,14.50
2023-01-20T18:56:34.341Z,15.13
2023-01-20T18:59:36.750Z,12.13
2023-01-20T19:02:39.082Z,13.05
2023-01-20T19:05:41.453Z,13.30
2023-01-20T19:08:44.970Z,13.90
2023-01-20T19:11:47.227Z,12.60
2023-01-20T19:14:51.343Z,12.50
2023-01-20T19:17:53.590Z,12.43
2023-01-20T19:20:55.989Z,10.50
2023-01-20T19:24:01.339Z,11.30
2023-01-20T19:27:04.212Z,10.10
2023-01-20T19:30:08.035Z,13.48
2023-01-20T19:33:12.265Z,10.85
2023-01-20T19:36:16.412Z,11.18
2023-01-20T19:39:19.930Z,9.83
2023-01-20T19:42:25.731Z,10.17
2023-01-20T19:45:40.319Z,13.30
2023-01-20T19:48:47.338Z,12.18
2023-01-20T19:51:49.636Z,11.55
2023-01-20T19:54:52.324Z,14.00
2023-01-20T19:57:55.089Z,15.67
2023-01-20T20:01:17.261Z,12.32
2023-01-20T20:04:20.688Z,14.07
2023-01-20T20:07:24.263Z,12.07
2023-01-20T20:10:26.552Z,14.63
2023-01-20T20:13:28.884Z,12.90
2023-01-20T20:16:33.566Z,11.52
2023-01-20T20:19:35.974Z,12.40
2023-01-20T20:22:38.207Z,13.55
2023-01-20T20:25:44.401Z,15.67
2023-01-20T20:28:46.967Z,15.80
2023-01-20T20:31:49.494Z,14.30
2023-01-20T20:34:51.826Z,15.80
2023-01-20T20:37:54.091Z,16.02
2023-01-20T20:40:58.039Z,15.90
2023-01-20T20:44:01.548Z,17.40
2023-01-20T20:47:03.958Z,19.50
2023-01-20T20:50:08.231Z,16.55
2023-01-20T20:53:10.591Z,19.33
2023-01-20T20:56:15.298Z,16.97
2023-01-20T20:59:22.964Z,19.37
2023-01-20T21:02:26.130Z,18.67
2023-01-20T21:05:28.457Z,17.75
2023-01-20T21:08:31.151Z,21.45
2023-01-20T21:11:33.729Z,22.27
2023-01-20T21:14:36.030Z,20.97
2023-01-20T21:17:39.183Z,22.33
2023-01-20T21:20:41.408Z,20.25
2023-01-20T21:23:54.686Z,21.10
2023-01-20T21:26:57.138Z,22.27
2023-01-20T21:29:59.692Z,19.43
2023-01-20T21:33:01.988Z,23.13
2023-01-20T21:36:05.921Z,20.02
2023-01-20T21:39:20.108Z,17.17
2023-01-20T21:42:22.504Z,18.77
2023-01-20T21:45:24.797Z,21.63
2023-01-20T21:48:45.579Z,25.02
2023-01-20T21:52:06.438Z,23.70
2023-01-20T21:55:15.973Z,25.27
2023-01-20T21:58:18.209Z,23.10
2023-01-20T22:01:20.495Z,23.37
2023-01-20T22:04:22.854Z,24.10
2023-01-20T22:07:25.175Z,24.70
2023-01-20T22:10:27.454Z,23.23
2023-01-20T22:13:29.773Z,24.40
2023-01-20T22:16:32.427Z,21.93
2023-01-20T22:19:34.969Z,24.33
2023-01-20T22:22:37.259Z,23.52
2023-01-20T22:25:39.989Z,22.98
2023-01-20T22:28:43.011Z,23.43
2023-01-20T22:31:46.352Z,20.77
2023-01-20T22:34:48.726Z,21.65
2023-01-20T22:37:51.046Z,20.27
2023-01-20T22:40:53.328Z,18.13
2023-01-20T22:43:55.978Z,19.60
2023-01-20T22:46:58.269Z,24.03
2023-01-20T22:50:00.553Z,20.63
2023-01-20T22:53:03.119Z,18.92
2023-01-20T22:56:07.727Z,21.50
2023-01-20T22:59:12.577Z,20.40
2023-01-20T23:02:15.015Z,21.33
2023-01-20T23:05:17.309Z,17.70
2023-01-20T23:08:19.734Z,18.08
2023-01-20T23:11:23.344Z,18.23
2023-01-20T23:14:57.766Z,19.97
2023-01-20T23:18:00.054Z,21.13
2023-01-20T23:21:02.423Z,19.73
2023-01-20T23:24:04.902Z,21.13
2023-01-20T23:27:07.236Z,23.25
2023-01-20T23:30:11.375Z,18.60
2023-01-20T23:33:13.631Z,21.70
2023-01-20T23:36:21.841Z,19.55
2023-01-20T23:39:24.479Z,22.27
2023-01-20T23:42:26.837Z,19.48
2023-01-20T23:45:29.216Z,22.60
2023-01-20T23:48:32.399Z,23.60
2023-01-20T23:51:34.769Z,21.38
2023-01-20T23:54:37.065Z,19.35
2023-01-20T23:57:39.355Z,18.65
